createdAt,value
2023-03-22T00:00:15.031Z,100269.31
2023-03-22T00:02:41.396Z,100278.31
2023-03-22T00:05:08.281Z,100272.22
2023-03-22T00:07:34.661Z,100274.13
2023-03-22T00:10:01.394Z,100269.00
2023-03-22T00:12:27.762Z,100276.44
2023-03-22T00:14:55.057Z,100276.88
2023-03-22T00:17:23.042Z,100280.56
2023-03-22T00:19:49.686Z,100272.97
2023-03-22T00:22:16.088Z,100271.59
2023-03-22T00:24:42.457Z,100268.81
2023-03-22T00:27:08.764Z,100266.94
2023-03-22T00:29:35.167Z,100269.53
2023-03-22T00:32:01.564Z,100269.56
2023-03-22T00:34:31.500Z,100260.09
2023-03-22T00:36:57.909Z,100261.91
2023-03-22T00:39:24.374Z,100253.75
2023-03-22T00:41:51.427Z,100256.28
2023-03-22T00:44:17.848Z,100248.25
2023-03-22T00:46:44.192Z,100240.94
2023-03-22T00:49:10.538Z,100246.38
2023-03-22T00:51:36.841Z,100245.47
2023-03-22T00:54:03.261Z,100241.50
2023-03-22T00:56:29.602Z,100224.19
2023-03-22T00:58:56.163Z,100238.00
2023-03-22T01:01:22.588Z,100240.50
2023-03-22T01:03:50.566Z,100235.88
2023-03-22T01:06:17.246Z,100231.50
2023-03-22T01:08:43.735Z,100232.94
2023-03-22T01:11:10.150Z,100235.53
2023-03-22T01:13:37.668Z,100231.50
2023-03-22T01:16:05.550Z,100227.28
2023-03-22T01:18:31.940Z,100229.06
2023-03-22T01:20:59.391Z,100226.56
2023-03-22T01:23:25.763Z,100217.94
2023-03-22T01:25:52.069Z,100217.16
2023-03-22T01:28:18.567Z,100219.91
2023-03-22T01:30:44.913Z,100223.50
2023-03-22T01:33:11.281Z,100214.84
2023-03-22T01:35:37.702Z,100207.72
2023-03-22T01:38:04.153Z,100212.13
2023-03-22T01:40:30.495Z,100200.56
2023-03-22T01:42:56.953Z,100203.88
2023-03-22T01:45:35.692Z,100205.34
2023-03-22T01:48:08.459Z,100213.81
2023-03-22T01:50:37.385Z,100211.81
2023-03-22T01:53:06.564Z,100210.00
2023-03-22T01:55:33.296Z,100201.44
2023-03-22T01:58:00.996Z,100198.91
2023-03-22T02:00:27.722Z,100194.91
2023-03-22T02:02:54.178Z,100192.22
2023-03-22T02:05:22.304Z,100187.88
2023-03-22T02:07:50.225Z,100192.00
2023-03-22T02:10:20.364Z,100191.38
2023-03-22T02:13:12.512Z,100189.03
2023-03-22T02:15:49.624Z,100181.47
2023-03-22T02:18:38.528Z,100181.91
2023-03-22T02:21:35.595Z,100181.56
2023-03-22T02:24:26.314Z,100183.00
2023-03-22T02:26:59.474Z,100181.09
2023-03-22T02:29:32.914Z,100175.84
2023-03-22T02:32:26.160Z,100174.09
2023-03-22T02:35:34.135Z,100185.88
2023-03-22T02:38:27.656Z,100182.34
2023-03-22T02:41:01.729Z,100181.84
2023-03-22T02:43:34.424Z,100180.34
2023-03-22T02:46:09.722Z,100190.94
2023-03-22T02:48:47.932Z,100182.28
2023-03-22T02:51:30.272Z,100173.06
2023-03-22T02:54:04.085Z,100166.06
2023-03-22T02:56:55.513Z,100178.16
2023-03-22T02:59:24.762Z,100170.22
2023-03-22T03:02:00.269Z,100173.88
2023-03-22T03:04:37.743Z,100157.91
2023-03-22T03:07:09.205Z,100169.13
2023-03-22T03:09:38.087Z,100168.84
2023-03-22T03:12:09.788Z,100161.00
2023-03-22T03:14:36.135Z,100162.53
2023-03-22T03:17:39.634Z,100167.19
2023-03-22T03:20:37.674Z,100162.78
2023-03-22T03:23:16.399Z,100158.72
2023-03-22T03:25:52.014Z,100158.72
2023-03-22T03:28:30.198Z,100154.19
2023-03-22T03:30:59.964Z,100153.16
2023-03-22T03:33:28.459Z,100152.09
2023-03-22T03:36:09.791Z,100159.81
2023-03-22T03:38:42.327Z,100154.44
2023-03-22T03:41:13.589Z,100152.41
2023-03-22T03:43:41.971Z,100153.34
2023-03-22T03:46:09.072Z,100155.19
2023-03-22T03:48:38.628Z,100148.19
2023-03-22T03:51:05.412Z,100147.34
2023-03-22T03:53:32.285Z,100139.28
2023-03-22T03:55:58.622Z,100141.81
2023-03-22T03:58:25.093Z,100132.28
2023-03-22T04:00:51.941Z,100133.88
2023-03-22T04:03:18.446Z,100131.16
2023-03-22T04:05:44.962Z,100132.06
2023-03-22T04:08:11.404Z,100141.53
2023-03-22T04:10:38.071Z,100137.03
2023-03-22T04:13:04.653Z,100126.19
2023-03-22T04:15:31.027Z,100124.28
2023-03-22T04:17:57.359Z,100135.50
2023-03-22T04:20:26.022Z,100137.94
2023-03-22T04:22:52.707Z,100134.41
2023-03-22T04:25:19.046Z,100126.41
2023-03-22T04:27:50.844Z,100127.91
2023-03-22T04:30:18.883Z,100118.44
2023-03-22T04:32:47.280Z,100130.06
2023-03-22T04:35:13.880Z,100121.34
2023-03-22T04:37:41.614Z,100122.56
2023-03-22T04:40:08.696Z,100131.75
2023-03-22T04:42:35.441Z,100112.06
2023-03-22T04:45:03.921Z,100121.59
2023-03-22T04:47:30.282Z,100122.44
2023-03-22T04:49:57.357Z,100119.44
2023-03-22T04:52:23.677Z,100120.50
2023-03-22T04:54:50.747Z,100125.63
2023-03-22T04:57:17.129Z,100122.53
2023-03-22T04:59:43.457Z,100123.63
2023-03-22T05:02:09.812Z,100123.47
2023-03-22T05:04:36.119Z,100127.56
2023-03-22T05:07:02.697Z,100129.03
2023-03-22T05:09:28.994Z,100129.59
2023-03-22T05:11:57.808Z,100133.09
2023-03-22T05:14:24.524Z,100129.47
2023-03-22T05:16:51.119Z,100129.41
2023-03-22T05:19:17.421Z,100133.69
2023-03-22T05:21:44.017Z,100133.06
2023-03-22T05:24:11.593Z,100133.53
2023-03-22T05:26:42.087Z,100124.97
2023-03-22T05:29:10.832Z,100126.22
2023-03-22T05:31:37.622Z,100122.03
2023-03-22T05:34:04.617Z,100118.47
2023-03-22T05:36:30.974Z,100116.94
2023-03-22T05:38:57.639Z,100119.91
2023-03-22T05:41:24.191Z,100114.25
2023-03-22T05:43:50.987Z,100122.28
2023-03-22T05:46:17.393Z,100115.59
2023-03-22T05:48:43.807Z,100118.25
2023-03-22T05:51:17.583Z,100121.91
2023-03-22T05:53:47.592Z,100115.63
2023-03-22T05:56:14.841Z,100116.53
2023-03-22T05:58:42.251Z,100114.59
2023-03-22T06:01:11.548Z,100101.63
2023-03-22T06:03:39.080Z,100092.16
2023-03-22T06:06:10.639Z,100109.25
2023-03-22T06:08:39.269Z,100108.50
2023-03-22T06:11:06.582Z,100118.03
2023-03-22T06:13:33.427Z,100125.34
2023-03-22T06:16:02.152Z,100123.88
2023-03-22T06:18:29.448Z,100118.75
2023-03-22T06:20:55.779Z,100129.53
2023-03-22T06:23:22.233Z,100132.59
2023-03-22T06:25:48.893Z,100130.19
2023-03-22T06:28:15.252Z,100144.47
2023-03-22T06:30:41.893Z,100135.88
2023-03-22T06:33:08.625Z,100137.50
2023-03-22T06:35:35.392Z,100141.44
2023-03-22T06:38:01.896Z,100141.59
2023-03-22T06:40:28.340Z,100135.63
2023-03-22T06:42:54.890Z,100145.38
2023-03-22T06:45:22.677Z,100143.34
2023-03-22T06:47:50.318Z,100147.00
2023-03-22T06:50:17.143Z,100142.44
2023-03-22T06:52:43.517Z,100152.75
2023-03-22T06:55:09.945Z,100158.56
2023-03-22T06:57:36.396Z,100139.19
2023-03-22T07:00:05.320Z,100150.41
2023-03-22T07:02:31.860Z,100148.97
2023-03-22T07:04:58.192Z,100141.56
2023-03-22T07:07:24.554Z,100145.13
2023-03-22T07:09:51.065Z,100155.78
2023-03-22T07:12:18.575Z,100142.59
2023-03-22T07:14:45.102Z,100145.47
2023-03-22T07:17:14.021Z,100143.28
2023-03-22T07:19:42.580Z,100151.34
2023-03-22T07:22:09.157Z,100137.91
2023-03-22T07:24:40.329Z,100134.91
2023-03-22T07:27:11.075Z,100129.63
2023-03-22T07:29:37.728Z,100137.34
2023-03-22T07:32:04.264Z,100137.09
2023-03-22T07:34:31.031Z,100141.22
2023-03-22T07:36:57.358Z,100128.47
2023-03-22T07:39:24.793Z,100124.28
2023-03-22T07:41:51.764Z,100117.22
2023-03-22T07:44:18.572Z,100119.91
2023-03-22T07:46:45.074Z,100118.91
2023-03-22T07:49:11.428Z,100123.56
2023-03-22T07:51:38.350Z,100126.34
2023-03-22T07:54:07.604Z,100130.97
2023-03-22T07:56:34.633Z,100140.00
2023-03-22T07:59:01.004Z,100130.25
2023-03-22T08:01:27.400Z,100139.31
2023-03-22T08:03:53.713Z,100134.22
2023-03-22T08:06:21.557Z,100133.38
2023-03-22T08:08:48.160Z,100135.19
2023-03-22T08:11:14.461Z,100136.09
2023-03-22T08:13:40.873Z,100136.97
2023-03-22T08:16:07.535Z,100138.72
2023-03-22T08:18:33.933Z,100140.50
2023-03-22T08:21:00.653Z,100129.88
2023-03-22T08:23:40.560Z,100131.59
2023-03-22T08:26:08.031Z,100126.34
2023-03-22T08:28:34.374Z,100128.13
2023-03-22T08:31:00.789Z,100121.91
2023-03-22T08:33:28.172Z,100114.84
2023-03-22T08:36:14.297Z,100117.47
2023-03-22T08:38:42.315Z,100107.75
2023-03-22T08:41:08.658Z,100110.38
2023-03-22T08:43:35.034Z,100105.06
2023-03-22T08:46:01.604Z,100103.31
2023-03-22T08:48:30.522Z,100097.97
2023-03-22T08:50:57.654Z,100098.81
2023-03-22T08:53:24.033Z,100096.09
2023-03-22T08:55:50.861Z,100092.50
2023-03-22T08:58:19.530Z,100092.44
2023-03-22T09:00:49.497Z,100089.91
2023-03-22T09:03:17.257Z,100092.59
2023-03-22T09:05:43.712Z,100093.47
2023-03-22T09:08:18.177Z,100080.13
2023-03-22T09:10:51.060Z,100083.53
2023-03-22T09:13:17.925Z,100077.19
2023-03-22T09:15:47.565Z,100070.75
2023-03-22T09:18:14.619Z,100063.16
2023-03-22T09:20:41.215Z,100060.00
2023-03-22T09:23:07.931Z,100054.91
2023-03-22T09:25:34.307Z,100052.06
2023-03-22T09:28:01.195Z,100049.03
2023-03-22T09:30:27.544Z,100046.28
2023-03-22T09:32:54.105Z,100050.78
2023-03-22T09:35:20.652Z,100042.94
2023-03-22T09:37:49.182Z,100040.41
2023-03-22T09:40:17.253Z,100041.56
2023-03-22T09:42:51.057Z,100031.97
2023-03-22T09:45:27.706Z,100044.44
2023-03-22T09:47:55.783Z,100036.25
2023-03-22T09:50:25.206Z,100030.06
2023-03-22T09:52:52.859Z,100033.72
2023-03-22T09:55:25.102Z,100031.34
2023-03-22T09:58:05.318Z,100031.31
2023-03-22T10:00:52.710Z,100019.31
2023-03-22T10:03:55.608Z,100011.72
2023-03-22T10:06:24.185Z,100012.06
2023-03-22T10:09:16.562Z,100023.53
2023-03-22T10:12:04.993Z,100018.88
2023-03-22T10:14:41.260Z,100016.72
2023-03-22T10:17:15.783Z,100002.38
2023-03-22T10:20:08.509Z,100003.34
2023-03-22T10:22:43.884Z,100013.25
2023-03-22T10:25:17.443Z,100015.44
2023-03-22T10:27:46.356Z,100012.69
2023-03-22T10:30:22.177Z,100008.09
2023-03-22T10:33:03.504Z,100009.66
2023-03-22T10:35:31.617Z,99996.19
2023-03-22T10:38:01.967Z,100009.72
2023-03-22T10:40:34.033Z,100011.31
2023-03-22T10:43:05.763Z,100009.94
2023-03-22T10:45:34.851Z,100002.13
2023-03-22T10:48:13.202Z,100002.38
2023-03-22T10:50:44.450Z,100002.44
2023-03-22T10:53:34.564Z,100005.41
2023-03-22T10:56:00.853Z,100006.72
2023-03-22T10:58:32.210Z,100010.00
2023-03-22T11:01:04.389Z,100011.94
2023-03-22T11:03:41.782Z,99998.16
2023-03-22T11:06:17.658Z,100014.88
2023-03-22T11:08:46.427Z,100001.44
2023-03-22T11:11:23.794Z,100008.28
2023-03-22T11:13:56.503Z,99997.41
2023-03-22T11:16:23.652Z,100004.25
2023-03-22T11:18:50.212Z,100000.75
2023-03-22T11:21:18.358Z,100000.38
2023-03-22T11:23:53.874Z,99984.50
2023-03-22T11:26:27.907Z,99991.34
2023-03-22T11:29:02.570Z,99989.88
2023-03-22T11:31:49.610Z,100003.31
2023-03-22T11:34:18.657Z,99973.75
2023-03-22T11:36:51.337Z,99982.81
2023-03-22T11:39:17.688Z,99977.97
2023-03-22T11:41:45.216Z,99970.34
2023-03-22T11:44:15.845Z,99973.22
2023-03-22T11:47:08.433Z,99970.72
2023-03-22T11:49:44.559Z,99959.66
2023-03-22T11:52:19.902Z,99975.84
2023-03-22T11:54:47.301Z,99970.06
2023-03-22T11:57:19.560Z,99955.84
2023-03-22T11:59:53.041Z,99948.25
2023-03-22T12:02:34.386Z,99957.22
2023-03-22T12:05:14.866Z,99955.88
2023-03-22T12:07:41.850Z,99953.94
2023-03-22T12:10:18.490Z,99948.84
2023-03-22T12:12:58.892Z,99953.63
2023-03-22T12:15:50.198Z,99941.22
2023-03-22T12:18:29.004Z,99936.25
2023-03-22T12:20:57.759Z,99934.53
2023-03-22T12:23:27.491Z,99948.19
2023-03-22T12:26:00.988Z,99934.53
2023-03-22T12:28:39.224Z,99940.00
2023-03-22T12:31:07.928Z,99927.06
2023-03-22T12:33:44.786Z,99923.38
2023-03-22T12:36:17.342Z,99931.78
2023-03-22T12:38:51.456Z,99927.03
2023-03-22T12:41:26.377Z,99924.03
2023-03-22T12:44:00.417Z,99917.88
2023-03-22T12:46:33.214Z,99907.09
2023-03-22T12:49:13.259Z,99919.53
2023-03-22T12:51:42.018Z,99913.91
2023-03-22T12:54:13.576Z,99913.31
2023-03-22T12:56:43.414Z,99911.69
2023-03-22T12:59:18.371Z,99898.22
2023-03-22T13:01:58.035Z,99900.41
2023-03-22T13:04:36.248Z,99898.31
2023-03-22T13:07:39.585Z,99897.16
2023-03-22T13:10:41.555Z,99885.78
2023-03-22T13:13:23.584Z,99880.94
2023-03-22T13:16:08.335Z,99887.06
2023-03-22T13:18:37.995Z,99883.81
2023-03-22T13:21:34.788Z,99874.47
2023-03-22T13:24:10.153Z,99885.03
2023-03-22T13:26:45.982Z,99881.34
2023-03-22T13:29:26.956Z,99874.00
2023-03-22T13:31:58.277Z,99865.81
2023-03-22T13:34:46.534Z,99868.78
2023-03-22T13:37:36.720Z,99875.81
2023-03-22T13:40:13.896Z,99875.56
2023-03-22T13:42:41.819Z,99867.28
2023-03-22T13:45:31.402Z,99873.97
2023-03-22T13:48:13.325Z,99865.84
2023-03-22T13:50:39.977Z,99876.81
2023-03-22T13:53:21.458Z,99872.75
2023-03-22T13:55:51.832Z,99865.50
2023-03-22T13:58:32.966Z,99870.03
2023-03-22T14:01:00.886Z,99862.16
2023-03-22T14:03:40.480Z,99849.59
2023-03-22T14:06:20.657Z,99856.22
2023-03-22T14:08:53.447Z,99853.69
2023-03-22T14:11:28.658Z,99860.06
2023-03-22T14:14:04.119Z,99852.19
2023-03-22T14:16:30.607Z,99857.41
2023-03-22T14:18:57.864Z,99846.03
2023-03-22T14:21:35.890Z,99842.78
